Time;durP1;ratioP1;P1;durP2;ratioP2;P2;SDS_P1;SDS_P2;PMS_P1;PMS_P2;Temp;Humidity;BMP_temperature;BMP_pressure;BME280_temperature;BME280_humidity;BME280_pressure;Samples;Min_cycle;Max_cycle;Signal;HPM_P1;HPM_P2
2022/07/02 00:01:17;;;;;;;10.30;8.38;;;;;;;20.17;97.08;96966.34;5044965;28;20397;-65
2022/07/02 00:03:52;;;;;;;9.32;8.30;;;;;;;20.64;94.76;97038.03;5043445;28;20056;-66
2022/07/02 00:06:20;;;;;;;9.65;8.63;;;;;;;20.96;93.41;97091.63;5044342;28;20048;-66
2022/07/02 00:08:48;;;;;;;10.45;8.30;;;;;;;20.94;92.79;97099.69;5044174;28;20055;-65
2022/07/02 00:11:15;;;;;;;12.40;8.50;;;;;;;20.74;92.14;97063.13;5042649;28;20052;-65
2022/07/02 00:13:42;;;;;;;10.57;8.32;;;;;;;20.98;92.13;97077.13;5044623;28;20554;-65
2022/07/02 00:16:10;;;;;;;10.48;8.10;;;;;;;20.23;91.33;96970.22;5044458;28;20527;-66
2022/07/02 00:18:40;;;;;;;12.23;7.43;;;;;;;20.90;91.33;97076.44;5044507;28;20072;-66
2022/07/02 00:21:07;;;;;;;8.82;7.75;;;;;;;20.24;91.55;96988.66;5042326;28;20535;-66
2022/07/02 00:23:34;;;;;;;11.38;7.70;;;;;;;20.83;91.87;97079.44;5045742;28;20075;-65
2022/07/02 00:26:36;;;;;;;11.93;7.05;;;;;;;20.79;92.39;97081.53;5046809;28;20063;-65
2022/07/02 00:29:06;;;;;;;10.77;7.68;;;;;;;20.77;92.78;97084.00;5033966;28;20142;-65
2022/07/02 00:31:37;;;;;;;10.10;7.75;;;;;;;19.64;93.57;96921.63;5046885;28;20076;-65
2022/07/02 00:34:05;;;;;;;9.18;7.10;;;;;;;20.71;93.18;97091.34;5046917;28;20508;-65
2022/07/02 00:36:33;;;;;;;9.68;6.95;;;;;;;20.31;94.48;97047.63;5046450;28;20139;-66
2022/07/02 00:39:00;;;;;;;9.65;7.28;;;;;;;20.58;94.52;97084.81;5046964;28;20068;-65
2022/07/02 00:41:27;;;;;;;10.48;7.53;;;;;;;20.52;95.18;97083.72;5047656;28;20056;-65
2022/07/02 00:43:54;;;;;;;10.73;8.18;;;;;;;20.06;94.26;97010.75;5046725;28;20056;-64
2022/07/02 00:46:23;;;;;;;10.63;8.18;;;;;;;20.51;94.08;97076.53;5048228;28;20064;-65
2022/07/02 00:48:50;;;;;;;9.88;7.32;;;;;;;20.30;93.91;97049.63;5047938;28;20605;-65
2022/07/02 00:51:17;;;;;;;7.65;6.72;;;;;;;20.57;94.53;97083.22;5048417;28;20053;-65
2022/07/02 00:53:44;;;;;;;9.75;7.50;;;;;;;19.87;95.49;97008.72;5047060;28;20487;-64
2022/07/02 00:56:10;;;;;;;10.35;8.00;;;;;;;20.55;95.62;97089.28;5047838;28;20060;-65
2022/07/02 00:58:37;;;;;;;9.10;7.30;;;;;;;20.52;94.91;97084.53;5046705;28;20056;-64
2022/07/02 01:01:04;;;;;;;11.35;7.50;;;;;;;19.73;94.68;96980.88;5048191;28;20056;-65
2022/07/02 01:03:34;;;;;;;11.60;7.47;;;;;;;20.39;95.49;97080.78;5046410;28;20482;-65
2022/07/02 01:06:00;;;;;;;11.32;8.13;;;;;;;19.52;94.99;96949.16;5046624;28;20053;-65
2022/07/02 01:11:14;;;;;;;11.35;7.68;;;;;;;19.99;95.69;97022.13;5047354;28;21271;-65
2022/07/02 01:13:41;;;;;;;9.95;7.50;;;;;;;20.23;96.30;97077.13;5046295;28;20060;-64
2022/07/02 01:16:07;;;;;;;9.15;7.55;;;;;;;19.63;96.61;96981.88;5046287;28;20056;-65
2022/07/02 01:18:36;;;;;;;8.52;7.63;;;;;;;19.88;97.07;97027.97;5047555;28;20045;-65
2022/07/02 01:21:04;;;;;;;10.93;8.43;;;;;;;18.88;97.36;96881.34;5046067;28;20052;-65
2022/07/02 01:23:30;;;;;;;15.52;9.75;;;;;;;20.22;97.09;97075.50;5047622;28;20061;-65
2022/07/02 01:25:57;;;;;;;13.80;8.98;;;;;;;20.07;99.05;97068.56;5045792;28;20582;-65
2022/07/02 01:28:24;;;;;;;14.50;9.65;;;;;;;19.86;99.47;97046.47;5046368;28;20060;-65
2022/07/02 01:30:51;;;;;;;11.75;9.43;;;;;;;19.64;98.62;97000.31;5046141;28;20061;-65
2022/07/02 01:33:18;;;;;;;10.68;9.23;;;;;;;20.08;98.68;97075.75;5047412;28;20057;-65
2022/07/02 01:35:45;;;;;;;13.10;9.27;;;;;;;19.53;98.03;96995.72;5046974;28;20494;-64
2022/07/02 01:38:12;;;;;;;11.45;9.57;;;;;;;20.12;97.54;97074.47;5045745;28;20518;-66
2022/07/02 01:40:39;;;;;;;13.75;9.77;;;;;;;19.82;96.73;97020.47;5045988;28;20427;-65
2022/07/02 01:43:06;;;;;;;15.52;10.73;;;;;;;20.20;96.74;97066.72;5047285;28;20053;-65
2022/07/02 01:45:32;;;;;;;18.60;9.10;;;;;;;20.21;96.40;97068.31;5047222;28;20057;-65
2022/07/02 01:48:00;;;;;;;13.88;9.02;;;;;;;18.81;96.06;96847.00;5045681;28;20542;-64
2022/07/02 01:50:26;;;;;;;12.02;8.65;;;;;;;19.66;95.85;96969.78;5045356;28;20067;-65
2022/07/02 01:52:56;;;;;;;12.35;9.07;;;;;;;20.23;95.75;97063.06;5046769;28;20060;-65
2022/07/02 01:55:24;;;;;;;9.48;7.75;;;;;;;18.93;94.72;96852.78;5045331;28;20060;-65
2022/07/02 01:57:52;;;;;;;9.30;8.00;;;;;;;20.26;94.32;97059.38;5045672;28;20080;-65
2022/07/02 02:00:19;;;;;;;9.30;7.60;;;;;;;19.53;95.27;96983.66;5046641;28;20060;-64
2022/07/02 02:02:46;;;;;;;10.75;7.53;;;;;;;19.47;96.38;96986.16;5045480;28;20114;-64
2022/07/02 02:05:13;;;;;;;9.85;8.20;;;;;;;19.23;96.66;96967.75;5045130;28;20546;-67
2022/07/02 02:07:40;;;;;;;10.38;7.20;;;;;;;19.97;96.93;97070.34;5046755;28;20048;-65
2022/07/02 02:10:07;;;;;;;11.23;7.97;;;;;;;19.47;97.62;97011.47;5044890;28;20400;-65
2022/07/02 02:12:34;;;;;;;8.75;6.88;;;;;;;19.82;98.13;97091.53;5046743;28;20045;-64
2022/07/02 02:15:00;;;;;;;12.50;7.35;;;;;;;19.05;98.53;96964.44;5045017;28;20073;-66
2022/07/02 02:17:27;;;;;;;13.93;7.82;;;;;;;19.06;98.41;96970.88;5045235;28;20049;-65
2022/07/02 02:19:54;;;;;;;8.50;7.15;;;;;;;19.91;97.94;97074.09;5044669;28;20053;-65
2022/07/02 02:22:20;;;;;;;11.07;7.80;;;;;;;19.72;97.10;97041.13;5046870;28;20169;-65
2022/07/02 02:24:47;;;;;;;10.27;7.90;;;;;;;18.60;96.16;96855.78;5044604;28;20059;-65
2022/07/02 02:27:17;;;;;;;9.20;7.43;;;;;;;19.77;96.40;97049.88;5044966;28;20072;-65
2022/07/02 02:29:44;;;;;;;9.60;7.68;;;;;;;20.10;96.15;97078.94;5046249;28;20056;-65
2022/07/02 02:32:10;;;;;;;12.02;7.80;;;;;;;19.77;95.91;97043.44;5045091;28;20061;-64
2022/07/02 02:34:37;;;;;;;9.23;7.80;;;;;;;19.77;96.30;97049.06;5045913;28;20669;-65
2022/07/02 02:37:05;;;;;;;10.60;7.55;;;;;;;19.86;95.49;97057.72;5044582;28;20068;-65
2022/07/02 02:39:31;;;;;;;13.15;8.25;;;;;;;19.72;95.49;97035.50;5044723;28;20052;-65
2022/07/02 02:41:58;;;;;;;8.90;7.50;;;;;;;19.96;96.26;97084.84;5044498;28;20491;-65
2022/07/02 02:44:25;;;;;;;11.93;8.15;;;;;;;18.88;97.29;96943.09;5045233;28;20056;-65
2022/07/02 02:46:52;;;;;;;9.98;8.73;;;;;;;19.84;97.78;97089.06;5043719;28;20052;-65
2022/07/02 02:49:18;;;;;;;12.93;10.57;;;;;;;19.80;97.83;97090.38;5044571;28;20056;-65
2022/07/02 02:51:45;;;;;;;14.40;12.93;;;;;;;18.66;97.11;96922.22;5045649;28;20416;-65
2022/07/02 02:54:12;;;;;;;15.18;12.77;;;;;;;19.63;97.25;97071.81;5034694;28;20056;-65
2022/07/02 02:56:39;;;;;;;13.70;10.52;;;;;;;19.38;98.49;97084.28;5059423;28;20056;-65
2022/07/02 02:59:05;;;;;;;13.23;8.38;;;;;;;19.11;97.51;96996.44;5045527;28;20045;-65
2022/07/02 03:01:32;;;;;;;11.85;9.00;;;;;;;19.74;98.07;97090.09;5045315;28;20053;-65
2022/07/02 03:03:59;;;;;;;11.13;8.23;;;;;;;19.80;97.40;97084.75;5044440;28;20155;-66
2022/07/02 03:06:26;;;;;;;14.77;12.93;;;;;;;19.75;97.63;97085.25;5044961;28;20048;-65
2022/07/02 03:08:52;;;;;;;12.73;11.50;;;;;;;19.58;97.55;97069.50;5045747;28;20061;-65
2022/07/02 03:11:19;;;;;;;16.33;10.57;;;;;;;19.48;96.71;97048.78;5045413;28;20045;-66
2022/07/02 03:13:46;;;;;;;16.88;10.85;;;;;;;19.75;97.80;97113.34;5045265;28;20052;-65
2022/07/02 03:16:12;;;;;;;11.82;8.98;;;;;;;19.82;97.75;97102.78;5045430;28;20053;-67
2022/07/02 03:18:39;;;;;;;11.63;8.90;;;;;;;19.91;97.07;97093.78;5045200;28;20091;-66
2022/07/02 03:21:06;;;;;;;16.58;9.43;;;;;;;19.89;97.21;97101.84;5043566;28;20142;-65
2022/07/02 03:23:33;;;;;;;10.32;8.80;;;;;;;19.51;96.62;97020.63;5043880;28;20101;-66
2022/07/02 03:25:59;;;;;;;16.98;8.95;;;;;;;19.54;96.03;97019.78;5043487;28;20053;-66
2022/07/02 03:28:26;;;;;;;11.10;8.30;;;;;;;19.96;94.82;97062.34;5043563;28;20526;-66
2022/07/02 03:30:53;;;;;;;8.52;7.63;;;;;;;20.38;93.67;97096.09;5043453;28;20869;-66
2022/07/02 03:33:20;;;;;;;9.77;7.63;;;;;;;20.46;92.93;97099.53;5044930;28;20584;-66
2022/07/02 03:35:46;;;;;;;11.93;7.55;;;;;;;18.45;91.30;96768.28;5043305;28;20059;-66
2022/07/02 03:38:13;;;;;;;9.45;7.28;;;;;;;20.38;91.28;97067.13;5044734;28;20057;-66
2022/07/02 03:40:40;;;;;;;12.73;7.95;;;;;;;19.79;91.10;96979.16;5043223;28;20045;-66
2022/07/02 03:43:07;;;;;;;11.57;7.47;;;;;;;20.68;90.65;97121.19;5042886;28;20566;-67
2022/07/02 03:45:33;;;;;;;8.38;7.43;;;;;;;20.48;90.50;97066.94;5043518;28;20392;-66
2022/07/02 03:48:00;;;;;;;12.00;8.52;;;;;;;20.82;90.10;97108.81;5043230;28;20059;-65
2022/07/02 03:50:27;;;;;;;10.25;9.07;;;;;;;20.59;89.77;97066.69;5044422;28;20060;-67
2022/07/02 03:52:54;;;;;;;9.65;8.30;;;;;;;20.36;89.49;97047.09;5044778;28;20065;-66
2022/07/02 03:55:23;;;;;;;12.02;8.43;;;;;;;20.71;89.05;97063.19;5042756;28;20060;-66
2022/07/02 03:57:50;;;;;;;11.48;9.60;;;;;;;20.14;89.67;96981.28;5043821;28;20052;-66
2022/07/02 04:00:17;;;;;;;14.50;9.07;;;;;;;20.92;90.05;97104.97;5044420;28;20056;-67
2022/07/02 04:02:43;;;;;;;11.13;9.27;;;;;;;20.21;89.69;96984.72;5044164;28;20059;-65
2022/07/02 04:05:10;;;;;;;13.35;8.30;;;;;;;20.89;89.82;97080.50;5043810;28;20056;-66
2022/07/02 04:07:37;;;;;;;9.27;8.23;;;;;;;21.15;89.36;97116.13;5043221;28;20515;-67
2022/07/02 04:10:04;;;;;;;11.50;7.60;;;;;;;20.83;88.19;97020.28;5044271;28;20049;-66
2022/07/02 04:12:31;;;;;;;9.57;7.13;;;;;;;21.29;86.92;97067.91;5043155;28;20056;-66
2022/07/02 04:14:57;;;;;;;9.23;7.47;;;;;;;21.73;86.21;97105.84;5042522;28;20494;-66
2022/07/02 04:17:25;;;;;;;8.68;6.93;;;;;;;21.67;85.59;97101.97;5044348;28;20060;-68
2022/07/02 04:19:51;;;;;;;10.32;6.88;;;;;;;21.55;85.00;97055.56;5042897;28;20065;-65
2022/07/02 04:22:18;;;;;;;11.27;7.05;;;;;;;22.03;83.65;97114.75;5042771;28;20064;-65
2022/07/02 04:24:45;;;;;;;8.80;7.10;;;;;;;22.25;82.95;97120.59;5044136;28;20140;-66
2022/07/02 04:27:11;;;;;;;10.30;7.22;;;;;;;22.12;82.04;97083.84;5042759;28;20056;-67
2022/07/02 04:29:38;;;;;;;16.83;9.38;;;;;;;22.28;82.43;97112.03;5042955;28;20059;-66
2022/07/02 04:32:05;;;;;;;14.48;10.65;;;;;;;22.45;81.94;97107.91;5044350;28;20049;-65
2022/07/02 04:34:32;;;;;;;20.00;11.48;;;;;;;22.53;81.58;97119.00;5044562;28;20049;-64
2022/07/02 04:36:59;;;;;;;16.63;9.77;;;;;;;21.75;82.40;97036.50;5044595;28;20447;-65
2022/07/02 04:39:26;;;;;;;13.20;8.73;;;;;;;22.39;82.80;97092.75;5042872;28;20060;-65
2022/07/02 04:41:52;;;;;;;13.10;8.48;;;;;;;22.07;81.66;97002.56;5044237;28;20460;-65
2022/07/02 04:44:19;;;;;;;14.60;8.30;;;;;;;22.55;81.72;97079.84;5043023;28;20056;-66
2022/07/02 04:46:46;;;;;;;21.23;10.13;;;;;;;23.00;81.81;97125.69;5042524;28;20060;-66
2022/07/02 04:49:12;;;;;;;13.90;8.05;;;;;;;22.91;81.23;97088.81;5044117;28;20089;-65
2022/07/02 04:51:39;;;;;;;12.02;8.70;;;;;;;22.89;80.98;97069.50;5044486;28;20060;-64
2022/07/02 04:54:06;;;;;;;10.85;8.48;;;;;;;23.32;79.71;97115.00;5042975;28;20122;-65
2022/07/02 04:56:33;;;;;;;16.05;9.20;;;;;;;23.50;78.72;97117.25;5043616;28;20061;-65
2022/07/02 04:58:59;;;;;;;15.05;9.45;;;;;;;23.58;77.90;97115.78;5042671;28;20061;-64
2022/07/02 05:01:28;;;;;;;16.10;9.23;;;;;;;23.80;77.02;97122.31;5042475;28;20049;-65
2022/07/02 05:03:55;;;;;;;16.23;8.65;;;;;;;23.75;75.94;97086.09;5042680;28;20106;-66
2022/07/02 05:06:22;;;;;;;11.93;8.35;;;;;;;24.09;75.46;97136.31;5043818;28;20061;-66
2022/07/02 05:08:50;;;;;;;16.42;8.63;;;;;;;22.56;74.71;96852.72;5044635;28;20056;-66
2022/07/02 05:11:19;;;;;;;12.18;9.20;;;;;;;23.87;74.84;97049.28;5048087;28;20053;-65
2022/07/02 05:13:47;;;;;;;13.98;9.02;;;;;;;24.42;73.68;97095.84;5046143;28;20450;-66
2022/07/02 05:16:14;;;;;;;14.73;8.82;;;;;;;23.79;73.63;96967.94;5046125;28;20507;-66
2022/07/02 05:18:41;;;;;;;20.83;10.48;;;;;;;24.68;73.36;97114.34;5046594;28;20562;-66
2022/07/02 05:21:08;;;;;;;16.83;10.55;;;;;;;24.70;72.62;97080.69;5047705;28;20420;-65
2022/07/02 05:23:34;;;;;;;20.55;12.35;;;;;;;24.21;72.31;97006.03;5045969;28;20048;-66
2022/07/02 05:26:02;;;;;;;14.65;10.90;;;;;;;25.19;71.55;97101.44;5047744;28;20056;-66
2022/07/02 05:28:29;;;;;;;12.93;9.32;;;;;;;25.30;70.87;97104.63;5047096;28;20080;-66
2022/07/02 05:30:55;;;;;;;14.38;9.45;;;;;;;25.28;70.73;97089.31;5047307;28;20091;-66
2022/07/02 05:33:22;;;;;;;17.63;9.82;;;;;;;25.36;71.11;97106.84;5047048;28;20108;-66
2022/07/02 05:35:49;;;;;;;9.57;8.48;;;;;;;25.39;70.88;97105.97;5047090;28;20053;-66
2022/07/02 05:38:16;;;;;;;14.63;8.63;;;;;;;25.19;71.04;97109.13;5045979;28;20056;-66
2022/07/02 05:40:43;;;;;;;10.30;8.95;;;;;;;25.56;69.47;97110.13;5045156;28;20057;-66
2022/07/02 05:43:10;;;;;;;17.52;9.38;;;;;;;25.53;68.17;97065.66;5046934;28;20095;-66
2022/07/02 05:45:36;;;;;;;13.32;9.38;;;;;;;25.39;68.03;97057.72;5046297;28;20059;-66
2022/07/02 05:48:07;;;;;;;10.32;8.73;;;;;;;24.96;67.63;96980.03;5045798;28;20060;-67
2022/07/02 05:50:34;;;;;;;22.85;9.90;;;;;;;24.99;68.66;97021.63;5044643;28;20507;-66
2022/07/02 05:53:01;;;;;;;13.45;9.18;;;;;;;25.77;68.00;97109.22;5047293;28;20140;-66
2022/07/02 05:55:28;;;;;;;14.27;8.65;;;;;;;25.86;66.94;97052.47;5045235;28;20056;-66
2022/07/02 05:57:55;;;;;;;13.30;8.35;;;;;;;26.11;65.58;97050.16;5038064;28;20495;-65
2022/07/02 06:00:21;;;;;;;10.40;8.65;;;;;;;25.87;64.86;96977.41;5045230;28;20079;-66
2022/07/02 06:02:48;;;;;;;10.27;9.27;;;;;;;26.08;63.48;96956.63;5044858;28;20049;-66
2022/07/02 06:08:01;;;;;;;9.90;8.40;;;;;;;27.61;61.96;97115.44;5046314;28;20053;-66
2022/07/02 06:10:27;;;;;;;11.32;8.60;;;;;;;27.77;60.79;97117.09;5045217;28;20538;-67
2022/07/02 06:12:54;;;;;;;10.60;8.30;;;;;;;27.99;60.56;97118.44;5046617;28;20048;-67
2022/07/02 06:15:21;;;;;;;13.10;9.52;;;;;;;27.49;60.01;96998.97;5045070;28;20057;-66
2022/07/02 06:17:48;;;;;;;12.25;8.93;;;;;;;27.77;59.68;97038.16;5044926;28;20143;-66
2022/07/02 06:20:15;;;;;;;13.02;9.00;;;;;;;28.12;59.76;97072.63;5045143;28;20048;-68
2022/07/02 06:22:49;;;;;;;9.90;8.90;;;;;;;28.22;59.60;97042.00;5046146;28;20049;-67
2022/07/02 06:25:15;;;;;;;8.98;8.10;;;;;;;28.95;58.99;97131.31;5046489;28;20053;-66
2022/07/02 06:27:42;;;;;;;9.02;8.10;;;;;;;28.98;57.73;97087.53;5044921;28;20063;-65
2022/07/02 06:30:10;;;;;;;9.48;8.57;;;;;;;28.70;58.00;97014.94;5044122;28;20558;-65
2022/07/02 06:32:38;;;;;;;9.23;8.35;;;;;;;29.20;57.80;97102.22;5045763;28;20057;-66
2022/07/02 06:35:05;;;;;;;15.45;8.70;;;;;;;29.28;58.20;97100.53;5044080;28;20053;-65
2022/07/02 06:37:31;;;;;;;10.13;8.50;;;;;;;29.43;57.36;97107.03;5045760;28;20053;-66
2022/07/02 06:39:58;;;;;;;14.00;12.60;;;;;;;29.38;57.21;97073.47;5045619;28;20059;-65
2022/07/02 06:42:29;;;;;;;10.65;9.25;;;;;;;28.93;56.10;96996.94;5045431;28;20049;-66
2022/07/02 06:44:58;;;;;;;10.20;9.25;;;;;;;29.06;56.45;97023.09;5045650;28;20048;-67
2022/07/02 06:47:25;;;;;;;9.13;8.32;;;;;;;29.25;56.50;97053.00;5043848;28;20638;-65
2022/07/02 06:49:55;;;;;;;10.40;9.15;;;;;;;29.41;56.37;97084.69;5044142;28;20059;-67
2022/07/02 06:52:22;;;;;;;9.85;8.20;;;;;;;29.83;56.25;97104.31;5045058;28;20056;-66
2022/07/02 06:54:49;;;;;;;9.77;8.50;;;;;;;29.03;54.77;96938.50;5043941;28;20053;-67
2022/07/02 06:57:16;;;;;;;9.63;8.68;;;;;;;29.82;54.31;97062.75;5044171;28;20064;-65
2022/07/02 06:59:51;;;;;;;11.68;8.90;;;;;;;30.17;53.65;97094.94;5044385;28;20340;-66
2022/07/02 07:02:18;;;;;;;9.38;8.48;;;;;;;30.23;52.42;97090.09;5045474;28;20064;-66
2022/07/02 07:04:45;;;;;;;9.15;7.82;;;;;;;29.93;52.90;97016.41;5045016;28;20060;-66
2022/07/02 07:07:12;;;;;;;9.90;9.05;;;;;;;30.55;52.13;97073.88;5045621;28;20052;-65
2022/07/02 07:09:39;;;;;;;10.40;9.40;;;;;;;30.97;51.43;97102.69;5045695;28;20555;-66
2022/07/02 07:12:06;;;;;;;9.57;8.75;;;;;;;30.73;51.60;97090.72;5045743;28;20060;-66
2022/07/02 07:14:34;;;;;;;10.05;8.32;;;;;;;31.02;50.29;97086.88;5045107;28;20060;-65
2022/07/02 07:17:02;;;;;;;9.55;8.27;;;;;;;31.39;50.39;97105.75;5045359;28;20139;-65
2022/07/02 07:19:29;;;;;;;10.27;8.13;;;;;;;31.50;49.88;97105.03;5043870;28;20557;-65
2022/07/02 07:21:55;;;;;;;11.85;9.05;;;;;;;31.19;49.83;97079.25;5043442;28;20056;-65
2022/07/02 07:24:22;;;;;;;19.20;9.23;;;;;;;31.40;49.29;97115.09;5043054;28;20299;-66
2022/07/02 07:26:49;;;;;;;10.40;7.53;;;;;;;31.44;48.43;97121.41;5043758;28;20156;-66
2022/07/02 07:29:16;;;;;;;9.95;7.03;;;;;;;31.35;46.05;97055.69;5044892;28;20053;-66
2022/07/02 07:31:43;;;;;;;8.07;7.25;;;;;;;31.72;45.46;97133.88;5044279;28;20565;-66
2022/07/02 07:34:10;;;;;;;7.82;6.22;;;;;;;31.09;45.20;96987.03;5043139;28;20494;-64
2022/07/02 07:36:37;;;;;;;9.93;7.45;;;;;;;31.99;44.99;97121.84;5044955;28;20438;-64
2022/07/02 07:39:05;;;;;;;7.07;6.43;;;;;;;31.95;45.02;97118.44;5044544;28;20515;-65
2022/07/02 07:41:33;;;;;;;7.90;7.10;;;;;;;32.04;44.17;97118.25;5042990;28;20121;-66
2022/07/02 07:44:00;;;;;;;8.05;6.63;;;;;;;31.61;43.75;97085.88;5044451;28;20053;-66
2022/07/02 07:46:27;;;;;;;8.82;6.78;;;;;;;31.84;43.57;97109.75;5044743;28;20057;-65
2022/07/02 07:48:54;;;;;;;8.35;7.50;;;;;;;31.58;42.92;97068.91;5043460;28;20115;-65
2022/07/02 07:51:21;;;;;;;10.20;6.43;;;;;;;31.39;42.60;97033.34;5044584;28;20057;-66
2022/07/02 07:53:48;;;;;;;7.70;6.90;;;;;;;30.42;42.07;96831.19;5045318;28;20075;-66
2022/07/02 07:56:18;;;;;;;7.70;6.95;;;;;;;31.40;41.38;96980.50;5043954;28;20073;-64
2022/07/02 07:58:46;;;;;;;8.20;6.55;;;;;;;32.30;40.62;97124.63;5043237;28;20052;-65
2022/07/02 08:01:13;;;;;;;7.47;6.55;;;;;;;31.84;40.85;97041.78;5044271;28;20056;-64
2022/07/02 08:03:40;;;;;;;6.82;6.13;;;;;;;30.41;42.17;96931.78;5042836;28;20059;-65
2022/07/02 08:06:07;;;;;;;8.40;6.95;;;;;;;31.72;43.67;97108.09;5044301;28;20431;-65
2022/07/02 08:08:33;;;;;;;7.25;6.43;;;;;;;32.07;43.59;97100.03;5044447;28;20091;-65
2022/07/02 08:11:00;;;;;;;8.32;7.47;;;;;;;32.09;43.22;97075.25;5043042;28;20103;-65
2022/07/02 08:13:27;;;;;;;8.55;7.80;;;;;;;32.19;42.26;97061.50;5042963;28;20087;-65
2022/07/02 08:15:54;;;;;;;7.18;6.43;;;;;;;32.58;40.09;97071.06;5044393;28;20057;-65
2022/07/02 08:18:21;;;;;;;7.53;6.70;;;;;;;33.10;40.48;97115.34;5044282;28;20063;-65
2022/07/02 08:20:48;;;;;;;6.75;6.10;;;;;;;32.64;40.73;97080.50;5042763;28;20059;-65
2022/07/02 08:23:15;;;;;;;7.97;7.10;;;;;;;32.90;41.29;97114.75;5044267;28;20055;-66
2022/07/02 08:25:42;;;;;;;6.72;6.13;;;;;;;33.08;40.68;97132.31;5044008;28;20059;-65
2022/07/02 08:28:08;;;;;;;8.05;7.35;;;;;;;33.38;40.28;97119.06;5044186;28;20243;-66
2022/07/02 08:30:35;;;;;;;10.02;7.97;;;;;;;32.65;41.55;97093.53;5043942;28;20056;-65
2022/07/02 08:33:03;;;;;;;7.65;6.93;;;;;;;33.04;40.78;97126.03;5042987;28;20059;-65
2022/07/02 08:35:30;;;;;;;7.50;6.82;;;;;;;33.10;39.19;97106.72;5042670;28;20090;-65
2022/07/02 08:37:57;;;;;;;7.18;6.57;;;;;;;31.70;39.90;97002.59;5043837;28;20049;-65
2022/07/02 08:40:26;;;;;;;8.10;6.78;;;;;;;32.86;40.23;97126.47;5042647;28;20087;-65
2022/07/02 08:42:55;;;;;;;6.82;6.13;;;;;;;32.85;41.32;97130.63;5044219;28;20527;-65
2022/07/02 08:45:23;;;;;;;6.50;5.97;;;;;;;33.17;39.85;97094.72;5046388;28;20060;-65
2022/07/02 08:47:54;;;;;;;8.77;6.20;;;;;;;33.73;38.31;97133.69;5046631;28;20469;-65
2022/07/02 08:50:23;;;;;;;8.60;7.35;;;;;;;33.33;37.63;97050.88;5047872;28;20092;-65
2022/07/02 08:52:53;;;;;;;8.80;6.60;;;;;;;33.94;38.57;97127.72;5046698;28;20063;-66
2022/07/02 08:55:21;;;;;;;8.40;7.28;;;;;;;33.56;39.00;97138.66;5046083;28;20063;-66
2022/07/02 08:57:48;;;;;;;9.90;7.00;;;;;;;32.58;40.91;97139.16;5046383;28;20055;-65
2022/07/02 09:00:17;;;;;;;8.23;7.10;;;;;;;32.59;40.89;97097.69;5046045;28;20055;-66
2022/07/02 09:02:44;;;;;;;7.22;6.60;;;;;;;33.24;40.42;97110.66;5046165;28;20181;-65
2022/07/02 09:05:12;;;;;;;11.88;7.22;;;;;;;33.90;39.41;97132.94;5045853;28;20079;-66
2022/07/02 09:07:40;;;;;;;8.40;7.43;;;;;;;34.03;38.87;97124.56;5047409;28;20409;-65
2022/07/02 09:10:09;;;;;;;8.43;7.68;;;;;;;32.77;40.26;97094.38;5047266;28;20278;-66
2022/07/02 09:12:37;;;;;;;7.80;7.00;;;;;;;32.89;40.11;97070.16;5047757;28;20061;-66
2022/07/02 09:15:04;;;;;;;7.55;6.85;;;;;;;33.35;39.73;97117.22;5046212;28;20061;-65
2022/07/02 09:17:32;;;;;;;9.45;8.00;;;;;;;34.17;38.91;97137.88;5046077;28;20159;-66
2022/07/02 09:19:59;;;;;;;9.80;7.95;;;;;;;32.36;39.37;96990.63;5047354;28;20060;-66
2022/07/02 09:22:35;;;;;;;8.00;7.00;;;;;;;33.91;38.65;97134.53;5045922;28;20068;-65
2022/07/02 09:25:16;;;;;;;9.02;7.57;;;;;;;33.80;39.18;97143.88;5045709;28;20052;-65
2022/07/02 09:27:44;;;;;;;8.95;7.72;;;;;;;34.30;37.68;97135.22;5045911;28;20159;-65
2022/07/02 09:30:15;;;;;;;8.48;7.68;;;;;;;33.78;38.14;97063.91;5045323;28;20060;-66
2022/07/02 09:32:44;;;;;;;7.75;6.88;;;;;;;33.37;38.28;97037.03;5047316;28;20404;-66
2022/07/02 09:35:22;;;;;;;7.45;6.72;;;;;;;33.56;37.16;97075.44;5045908;28;20056;-66
2022/07/02 09:37:50;;;;;;;10.35;8.48;;;;;;;33.69;38.30;97118.81;5047372;28;20089;-65
2022/07/02 09:40:20;;;;;;;8.93;7.97;;;;;;;34.30;37.31;97138.09;5045433;28;20435;-65
2022/07/02 09:42:48;;;;;;;8.70;7.57;;;;;;;33.86;37.90;97143.91;5046913;28;20462;-65
2022/07/02 09:45:16;;;;;;;8.50;7.70;;;;;;;33.87;37.93;97099.47;5046349;28;20059;-65
2022/07/02 09:47:51;;;;;;;8.50;7.65;;;;;;;34.03;38.07;97131.09;5045572;28;20056;-67
2022/07/02 09:50:19;;;;;;;6.68;6.18;;;;;;;34.15;37.54;97137.59;5046536;28;20053;-65
2022/07/02 09:52:54;;;;;;;8.75;7.88;;;;;;;33.29;36.73;97038.09;5047090;28;20049;-64
2022/07/02 09:55:25;;;;;;;8.48;7.57;;;;;;;33.14;38.46;97081.41;5044841;28;20065;-64
2022/07/02 09:58:10;;;;;;;8.63;7.78;;;;;;;34.60;36.67;97134.13;5046932;28;20056;-64
2022/07/02 10:00:47;;;;;;;8.60;7.72;;;;;;;33.93;38.47;97143.38;5045202;28;20049;-65
2022/07/02 10:03:13;;;;;;;7.30;6.60;;;;;;;32.68;38.79;97060.94;5046824;28;20052;-66
2022/07/02 10:05:45;;;;;;;7.05;6.45;;;;;;;32.53;38.15;97020.22;5046598;28;20057;-65
2022/07/02 10:08:12;;;;;;;9.93;7.22;;;;;;;33.34;38.52;97150.09;5045536;28;20111;-65
2022/07/02 10:10:39;;;;;;;8.82;7.25;;;;;;;32.53;37.99;97114.88;5046818;28;20049;-64
2022/07/02 10:13:07;;;;;;;9.40;7.50;;;;;;;32.80;39.07;97114.19;5046909;28;20143;-66
2022/07/02 10:15:39;;;;;;;9.15;8.25;;;;;;;32.97;39.20;97125.75;5046470;28;20052;-65
2022/07/02 10:18:06;;;;;;;8.52;7.45;;;;;;;32.63;38.45;97060.94;5046659;28;20601;-64
2022/07/02 10:20:34;;;;;;;8.07;6.82;;;;;;;33.39;37.27;97088.22;5046174;28;20049;-65
2022/07/02 10:23:03;;;;;;;8.18;7.38;;;;;;;33.14;38.03;97130.22;5044836;28;20614;-64
2022/07/02 10:25:31;;;;;;;9.82;7.63;;;;;;;32.38;38.77;96935.66;5046168;28;20053;-65
2022/07/02 10:27:58;;;;;;;7.78;7.13;;;;;;;33.85;38.70;97136.56;5046554;28;20049;-64
2022/07/02 10:30:31;;;;;;;9.57;7.85;;;;;;;33.20;37.27;96996.03;5044460;28;20436;-64
2022/07/02 10:33:29;;;;;;;11.43;7.85;;;;;;;34.55;36.44;97131.25;5045246;28;20136;-65
2022/07/02 10:36:01;;;;;;;8.80;7.55;;;;;;;33.13;36.96;97042.53;5044787;28;20124;-66
2022/07/02 10:38:29;;;;;;;7.88;7.15;;;;;;;33.73;36.62;97119.31;5042316;28;20120;-65
2022/07/02 10:40:56;;;;;;;8.38;6.50;;;;;;;32.59;38.11;97061.19;5078127;28;20581;-66
2022/07/02 10:43:26;;;;;;;7.32;6.63;;;;;;;33.08;38.10;97132.31;5063660;28;20063;-66
2022/07/02 10:46:08;;;;;;;8.88;7.45;;;;;;;33.76;37.52;97129.00;5044156;28;20048;-66
2022/07/02 10:48:46;;;;;;;7.80;6.97;;;;;;;34.11;36.21;97096.84;5044492;28;20065;-66
2022/07/02 10:51:23;;;;;;;7.30;6.70;;;;;;;34.27;35.79;97081.63;5045606;28;20067;-65
2022/07/02 10:53:52;;;;;;;8.45;7.65;;;;;;;34.05;37.26;97127.69;5045372;28;20064;-65
2022/07/02 10:56:21;;;;;;;8.07;6.32;;;;;;;33.13;36.33;97036.78;5043839;28;20057;-64
2022/07/02 10:58:49;;;;;;;7.20;6.60;;;;;;;32.36;35.52;96890.25;5051774;28;20388;-64
2022/07/02 11:01:21;;;;;;;6.97;6.47;;;;;;;33.31;35.86;97131.03;5065589;28;20059;-65
2022/07/02 11:03:57;;;;;;;8.15;7.45;;;;;;;33.02;37.21;97134.38;5064060;28;20058;-65
2022/07/02 11:06:28;;;;;;;10.20;7.80;;;;;;;32.01;37.07;96950.16;5066270;28;20083;-66
2022/07/02 11:09:07;;;;;;;7.68;6.35;;;;;;;32.57;35.58;96837.13;5064168;28;20053;-65
2022/07/02 11:11:36;;;;;;;8.75;7.57;;;;;;;33.49;36.49;97124.84;5064157;28;20487;-67
2022/07/02 11:14:13;;;;;;;9.00;8.00;;;;;;;33.86;37.06;97126.66;5064446;28;20488;-65
2022/07/02 11:16:47;;;;;;;7.18;6.10;;;;;;;33.86;36.25;97132.41;5064663;28;20095;-64
2022/07/02 11:19:18;;;;;;;6.90;6.35;;;;;;;33.68;35.68;97123.00;5052218;28;20064;-67
2022/07/02 11:21:49;;;;;;;8.68;7.88;;;;;;;33.56;36.00;97028.72;5042718;28;20075;-66
2022/07/02 11:24:24;;;;;;;8.63;6.68;;;;;;;33.92;36.62;97118.81;5043248;28;20057;-66
2022/07/02 11:26:51;;;;;;;8.77;6.30;;;;;;;33.48;37.00;97126.13;5045250;28;20064;-64
2022/07/02 11:29:18;;;;;;;9.98;7.97;;;;;;;32.32;37.92;97013.06;5044737;28;20059;-65
2022/07/02 11:31:47;;;;;;;8.82;7.88;;;;;;;32.95;37.04;97048.75;5044999;28;20049;-65
2022/07/02 11:34:18;;;;;;;7.57;6.88;;;;;;;33.75;36.61;97116.72;5053593;28;20084;-66
2022/07/02 11:36:45;;;;;;;10.90;7.78;;;;;;;33.20;37.56;97030.50;5043740;28;20056;-65
2022/07/02 11:39:15;;;;;;;9.13;7.18;;;;;;;33.75;37.06;97079.34;5044188;28;20049;-65